sensor_id;sensor_type;location;lat;lon;timestamp;temperature;humidity
19522;DHT22;9905;52.126;5.596;2023-05-07T00:02:18;15.10;99.90
19522;DHT22;9905;52.126;5.596;2023-05-07T00:04:44;15.00;99.90
19522;DHT22;9905;52.126;5.596;2023-05-07T00:07:11;15.10;99.90
19522;DHT22;9905;52.126;5.596;2023-05-07T00:09:38;15.00;99.90
19522;DHT22;9905;52.126;5.596;2023-05-07T00:12:05;15.10;99.90
19522;DHT22;9905;52.126;5.596;2023-05-07T00:14:32;15.00;99.90
19522;DHT22;9905;52.126;5.596;2023-05-07T00:16:58;15.00;99.90
19522;DHT22;9905;52.126;5.596;2023-05-07T00:19:27;15.00;99.90
19522;DHT22;9905;52.126;5.596;2023-05-07T00:21:53;15.00;99.90
19522;DHT22;9905;52.126;5.596;2023-05-07T00:24:21;15.00;99.90
19522;DHT22;9905;52.126;5.596;2023-05-07T00:26:48;15.00;99.90
19522;DHT22;9905;52.126;5.596;2023-05-07T00:29:14;15.00;99.90
19522;DHT22;9905;52.126;5.596;2023-05-07T00:31:41;14.90;99.90
19522;DHT22;9905;52.126;5.596;2023-05-07T00:34:08;15.00;99.90
19522;DHT22;9905;52.126;5.596;2023-05-07T00:36:36;14.90;99.90
19522;DHT22;9905;52.126;5.596;2023-05-07T00:39:03;14.90;99.90
19522;DHT22;9905;52.126;5.596;2023-05-07T00:41:30;15.00;99.90
19522;DHT22;9905;52.126;5.596;2023-05-07T00:43:57;15.00;99.90
19522;DHT22;9905;52.126;5.596;2023-05-07T00:46:24;14.90;99.90
19522;DHT22;9905;52.126;5.596;2023-05-07T00:48:51;14.90;99.90
19522;DHT22;9905;52.126;5.596;2023-05-07T00:51:18;14.90;99.90
19522;DHT22;9905;52.126;5.596;2023-05-07T00:53:46;14.90;99.90
19522;DHT22;9905;52.126;5.596;2023-05-07T00:56:13;14.90;99.90
19522;DHT22;9905;52.126;5.596;2023-05-07T00:58:41;14.80;99.90
19522;DHT22;9905;52.126;5.596;2023-05-07T01:01:07;14.80;99.90
19522;DHT22;9905;52.126;5.596;2023-05-07T01:03:34;14.80;99.90
19522;DHT22;9905;52.126;5.596;2023-05-07T01:06:01;14.80;99.90
19522;DHT22;9905;52.126;5.596;2023-05-07T01:08:29;14.80;99.90
19522;DHT22;9905;52.126;5.596;2023-05-07T01:10:58;14.70;99.90
19522;DHT22;9905;52.126;5.596;2023-05-07T01:13:25;14.80;99.90
19522;DHT22;9905;52.126;5.596;2023-05-07T01:15:52;14.70;99.90
19522;DHT22;9905;52.126;5.596;2023-05-07T01:18:19;14.70;99.90
19522;DHT22;9905;52.126;5.596;2023-05-07T01:20:47;14.70;99.90
19522;DHT22;9905;52.126;5.596;2023-05-07T01:23:15;14.70;99.90
19522;DHT22;9905;52.126;5.596;2023-05-07T01:25:42;14.70;99.90
19522;DHT22;9905;52.126;5.596;2023-05-07T01:28:09;14.60;99.90
19522;DHT22;9905;52.126;5.596;2023-05-07T01:30:36;14.60;99.90
19522;DHT22;9905;52.126;5.596;2023-05-07T01:33:04;14.60;99.90
19522;DHT22;9905;52.126;5.596;2023-05-07T01:35:37;14.60;99.90
19522;DHT22;9905;52.126;5.596;2023-05-07T01:38:05;14.60;99.90
19522;DHT22;9905;52.126;5.596;2023-05-07T01:40:35;14.60;99.90
19522;DHT22;9905;52.126;5.596;2023-05-07T01:43:02;14.60;99.90
19522;DHT22;9905;52.126;5.596;2023-05-07T01:45:30;14.60;99.90
19522;DHT22;9905;52.126;5.596;2023-05-07T01:47:58;14.60;99.90
19522;DHT22;9905;52.126;5.596;2023-05-07T01:50:25;14.60;99.90
19522;DHT22;9905;52.126;5.596;2023-05-07T01:52:52;14.60;99.90
19522;DHT22;9905;52.126;5.596;2023-05-07T01:55:19;14.50;99.90
19522;DHT22;9905;52.126;5.596;2023-05-07T01:57:47;14.50;99.90
19522;DHT22;9905;52.126;5.596;2023-05-07T02:00:14;14.50;99.90
19522;DHT22;9905;52.126;5.596;2023-05-07T02:02:41;14.50;99.90
19522;DHT22;9905;52.126;5.596;2023-05-07T02:05:08;14.50;99.90
19522;DHT22;9905;52.126;5.596;2023-05-07T02:07:35;14.50;99.90
19522;DHT22;9905;52.126;5.596;2023-05-07T02:10:02;14.50;99.90
19522;DHT22;9905;52.126;5.596;2023-05-07T02:12:29;14.50;99.90
19522;DHT22;9905;52.126;5.596;2023-05-07T02:14:57;14.50;99.90
19522;DHT22;9905;52.126;5.596;2023-05-07T02:17:24;14.60;99.90
19522;DHT22;9905;52.126;5.596;2023-05-07T02:19:50;14.50;99.90
19522;DHT22;9905;52.126;5.596;2023-05-07T02:22:17;14.50;99.90
19522;DHT22;9905;52.126;5.596;2023-05-07T02:24:44;14.50;99.90
19522;DHT22;9905;52.126;5.596;2023-05-07T02:27:11;14.50;99.90
19522;DHT22;9905;52.126;5.596;2023-05-07T02:29:38;14.50;99.90
19522;DHT22;9905;52.126;5.596;2023-05-07T02:32:06;14.50;99.90
19522;DHT22;9905;52.126;5.596;2023-05-07T02:34:33;14.50;99.90
19522;DHT22;9905;52.126;5.596;2023-05-07T02:36:59;14.50;99.90
19522;DHT22;9905;52.126;5.596;2023-05-07T02:39:26;14.50;99.90
19522;DHT22;9905;52.126;5.596;2023-05-07T02:41:53;14.50;99.90
19522;DHT22;9905;52.126;5.596;2023-05-07T02:44:19;14.50;99.90
19522;DHT22;9905;52.126;5.596;2023-05-07T02:46:46;14.50;99.90
19522;DHT22;9905;52.126;5.596;2023-05-07T02:49:14;14.50;99.90
19522;DHT22;9905;52.126;5.596;2023-05-07T02:51:41;14.50;99.90
19522;DHT22;9905;52.126;5.596;2023-05-07T02:54:08;14.50;99.90
19522;DHT22;9905;52.126;5.596;2023-05-07T02:56:34;14.50;99.90
19522;DHT22;9905;52.126;5.596;2023-05-07T02:59:01;14.50;99.90
19522;DHT22;9905;52.126;5.596;2023-05-07T03:01:28;14.50;99.90
19522;DHT22;9905;52.126;5.596;2023-05-07T03:03:54;14.50;99.90
19522;DHT22;9905;52.126;5.596;2023-05-07T03:06:24;14.50;99.90
19522;DHT22;9905;52.126;5.596;2023-05-07T03:08:51;14.50;99.90
19522;DHT22;9905;52.126;5.596;2023-05-07T03:11:18;14.50;99.90
19522;DHT22;9905;52.126;5.596;2023-05-07T03:13:45;14.50;99.90
19522;DHT22;9905;52.126;5.596;2023-05-07T03:16:12;14.40;99.90
19522;DHT22;9905;52.126;5.596;2023-05-07T03:18:38;14.40;99.90
19522;DHT22;9905;52.126;5.596;2023-05-07T03:21:05;14.40;99.90
19522;DHT22;9905;52.126;5.596;2023-05-07T03:23:33;14.40;99.90
19522;DHT22;9905;52.126;5.596;2023-05-07T03:26:00;14.40;99.90
19522;DHT22;9905;52.126;5.596;2023-05-07T03:28:27;14.40;99.90
19522;DHT22;9905;52.126;5.596;2023-05-07T03:30:53;14.40;99.90
19522;DHT22;9905;52.126;5.596;2023-05-07T03:33:20;14.40;99.90
19522;DHT22;9905;52.126;5.596;2023-05-07T03:35:47;14.40;99.90
19522;DHT22;9905;52.126;5.596;2023-05-07T03:38:14;14.40;99.90
19522;DHT22;9905;52.126;5.596;2023-05-07T03:40:42;14.40;99.90
19522;DHT22;9905;52.126;5.596;2023-05-07T03:43:08;14.40;99.90
19522;DHT22;9905;52.126;5.596;2023-05-07T03:45:35;14.40;99.90
19522;DHT22;9905;52.126;5.596;2023-05-07T03:48:02;14.50;99.90
19522;DHT22;9905;52.126;5.596;2023-05-07T03:50:29;14.40;99.90
19522;DHT22;9905;52.126;5.596;2023-05-07T03:52:56;14.40;99.90
19522;DHT22;9905;52.126;5.596;2023-05-07T03:55:23;14.40;99.90
19522;DHT22;9905;52.126;5.596;2023-05-07T03:57:51;14.40;99.90
19522;DHT22;9905;52.126;5.596;2023-05-07T04:00:18;14.40;99.90
19522;DHT22;9905;52.126;5.596;2023-05-07T04:02:45;14.40;99.90
19522;DHT22;9905;52.126;5.596;2023-05-07T04:05:12;14.40;99.90
19522;DHT22;9905;52.126;5.596;2023-05-07T04:07:40;14.40;99.90
19522;DHT22;9905;52.126;5.596;2023-05-07T04:10:07;14.40;99.90
19522;DHT22;9905;52.126;5.596;2023-05-07T04:12:34;14.40;99.90
19522;DHT22;9905;52.126;5.596;2023-05-07T04:15:03;14.40;99.90
19522;DHT22;9905;52.126;5.596;2023-05-07T04:17:30;14.40;99.90
19522;DHT22;9905;52.126;5.596;2023-05-07T04:19:56;14.40;99.90
19522;DHT22;9905;52.126;5.596;2023-05-07T04:22:23;14.40;99.90
19522;DHT22;9905;52.126;5.596;2023-05-07T04:24:50;14.40;99.90
19522;DHT22;9905;52.126;5.596;2023-05-07T04:27:16;14.50;99.90
19522;DHT22;9905;52.126;5.596;2023-05-07T04:29:43;14.40;99.90
19522;DHT22;9905;52.126;5.596;2023-05-07T04:32:13;14.40;99.90
19522;DHT22;9905;52.126;5.596;2023-05-07T04:34:40;14.40;99.90
19522;DHT22;9905;52.126;5.596;2023-05-07T04:37:07;14.40;99.90
19522;DHT22;9905;52.126;5.596;2023-05-07T04:39:34;14.40;99.90
19522;DHT22;9905;52.126;5.596;2023-05-07T04:42:01;14.40;99.90
19522;DHT22;9905;52.126;5.596;2023-05-07T04:44:28;14.40;99.90
19522;DHT22;9905;52.126;5.596;2023-05-07T04:46:56;14.40;99.90
19522;DHT22;9905;52.126;5.596;2023-05-07T04:49:24;14.40;99.90
19522;DHT22;9905;52.126;5.596;2023-05-07T04:51:51;14.40;99.90
19522;DHT22;9905;52.126;5.596;2023-05-07T04:54:17;14.40;99.90
19522;DHT22;9905;52.126;5.596;2023-05-07T04:56:44;14.40;99.90
19522;DHT22;9905;52.126;5.596;2023-05-07T04:59:11;14.40;99.90
19522;DHT22;9905;52.126;5.596;2023-05-07T05:01:38;14.40;99.90
19522;DHT22;9905;52.126;5.596;2023-05-07T05:04:05;14.40;99.90
19522;DHT22;9905;52.126;5.596;2023-05-07T05:06:33;14.50;99.90
19522;DHT22;9905;52.126;5.596;2023-05-07T05:09:00;14.50;99.90
19522;DHT22;9905;52.126;5.596;2023-05-07T05:11:27;14.50;99.90
19522;DHT22;9905;52.126;5.596;2023-05-07T05:13:54;14.50;99.90
19522;DHT22;9905;52.126;5.596;2023-05-07T05:16:21;14.50;99.90
19522;DHT22;9905;52.126;5.596;2023-05-07T05:18:47;14.50;99.90
19522;DHT22;9905;52.126;5.596;2023-05-07T05:21:14;14.60;99.90
19522;DHT22;9905;52.126;5.596;2023-05-07T05:23:42;14.60;99.90
19522;DHT22;9905;52.126;5.596;2023-05-07T05:26:09;14.60;99.90
19522;DHT22;9905;52.126;5.596;2023-05-07T05:28:36;14.70;99.90
19522;DHT22;9905;52.126;5.596;2023-05-07T05:31:02;14.70;99.90
19522;DHT22;9905;52.126;5.596;2023-05-07T05:33:29;14.70;99.90
19522;DHT22;9905;52.126;5.596;2023-05-07T05:35:56;14.70;99.90
19522;DHT22;9905;52.126;5.596;2023-05-07T05:38:23;14.70;99.90
19522;DHT22;9905;52.126;5.596;2023-05-07T05:40:51;14.70;99.90
19522;DHT22;9905;52.126;5.596;2023-05-07T05:43:17;14.80;99.90
19522;DHT22;9905;52.126;5.596;2023-05-07T05:45:44;14.80;99.90
19522;DHT22;9905;52.126;5.596;2023-05-07T05:48:11;14.80;99.90
19522;DHT22;9905;52.126;5.596;2023-05-07T05:50:38;14.80;99.90
19522;DHT22;9905;52.126;5.596;2023-05-07T05:53:04;14.90;99.90
19522;DHT22;9905;52.126;5.596;2023-05-07T05:55:31;14.80;99.90
19522;DHT22;9905;52.126;5.596;2023-05-07T05:58:00;14.90;99.90
19522;DHT22;9905;52.126;5.596;2023-05-07T06:00:27;14.90;99.90
19522;DHT22;9905;52.126;5.596;2023-05-07T06:02:54;14.90;99.90
19522;DHT22;9905;52.126;5.596;2023-05-07T06:05:21;15.00;99.90
19522;DHT22;9905;52.126;5.596;2023-05-07T06:07:48;15.00;99.90
19522;DHT22;9905;52.126;5.596;2023-05-07T06:10:14;15.10;99.90
19522;DHT22;9905;52.126;5.596;2023-05-07T06:12:41;15.00;99.90
19522;DHT22;9905;52.126;5.596;2023-05-07T06:15:10;15.10;99.90
19522;DHT22;9905;52.126;5.596;2023-05-07T06:17:37;15.10;99.90
19522;DHT22;9905;52.126;5.596;2023-05-07T06:20:04;15.10;99.90
19522;DHT22;9905;52.126;5.596;2023-05-07T06:22:31;15.10;99.90
19522;DHT22;9905;52.126;5.596;2023-05-07T06:24:58;15.10;99.90
19522;DHT22;9905;52.126;5.596;2023-05-07T06:27:25;15.20;99.90
19522;DHT22;9905;52.126;5.596;2023-05-07T06:29:53;15.20;99.90
19522;DHT22;9905;52.126;5.596;2023-05-07T06:32:21;15.20;99.90
19522;DHT22;9905;52.126;5.596;2023-05-07T06:34:48;15.30;99.90
19522;DHT22;9905;52.126;5.596;2023-05-07T06:37:15;15.40;99.90
19522;DHT22;9905;52.126;5.596;2023-05-07T06:39:41;15.40;99.90
19522;DHT22;9905;52.126;5.596;2023-05-07T06:42:08;15.40;99.90
19522;DHT22;9905;52.126;5.596;2023-05-07T06:44:35;15.50;99.90
19522;DHT22;9905;52.126;5.596;2023-05-07T06:47:01;15.50;99.90
19522;DHT22;9905;52.126;5.596;2023-05-07T06:49:29;15.50;99.90
19522;DHT22;9905;52.126;5.596;2023-05-07T06:51:56;15.50;99.90
19522;DHT22;9905;52.126;5.596;2023-05-07T06:54:23;15.60;99.90
19522;DHT22;9905;52.126;5.596;2023-05-07T06:56:50;15.60;99.90
19522;DHT22;9905;52.126;5.596;2023-05-07T06:59:17;15.60;99.90
19522;DHT22;9905;52.126;5.596;2023-05-07T07:01:44;15.60;99.90
19522;DHT22;9905;52.126;5.596;2023-05-07T07:04:11;15.60;99.90
19522;DHT22;9905;52.126;5.596;2023-05-07T07:06:39;15.70;99.90
19522;DHT22;9905;52.126;5.596;2023-05-07T07:09:06;15.70;99.90
19522;DHT22;9905;52.126;5.596;2023-05-07T07:11:33;15.80;99.90
19522;DHT22;9905;52.126;5.596;2023-05-07T07:13:59;15.80;99.90
19522;DHT22;9905;52.126;5.596;2023-05-07T07:16:26;15.80;99.90
19522;DHT22;9905;52.126;5.596;2023-05-07T07:18:53;15.80;99.90
19522;DHT22;9905;52.126;5.596;2023-05-07T07:21:20;15.90;99.90
19522;DHT22;9905;52.126;5.596;2023-05-07T07:23:48;15.90;99.90
19522;DHT22;9905;52.126;5.596;2023-05-07T07:26:14;15.90;99.90
19522;DHT22;9905;52.126;5.596;2023-05-07T07:28:45;16.00;99.90
19522;DHT22;9905;52.126;5.596;2023-05-07T07:31:12;16.00;99.90
19522;DHT22;9905;52.126;5.596;2023-05-07T07:33:39;16.00;99.90
19522;DHT22;9905;52.126;5.596;2023-05-07T07:36:06;16.10;99.90
19522;DHT22;9905;52.126;5.596;2023-05-07T07:38:33;16.20;99.90
19522;DHT22;9905;52.126;5.596;2023-05-07T07:41:01;16.20;99.90
19522;DHT22;9905;52.126;5.596;2023-05-07T07:43:28;16.20;99.90
19522;DHT22;9905;52.126;5.596;2023-05-07T07:45:55;16.30;99.90
19522;DHT22;9905;52.126;5.596;2023-05-07T07:48:22;16.30;99.90
19522;DHT22;9905;52.126;5.596;2023-05-07T07:50:49;16.40;99.90
19522;DHT22;9905;52.126;5.596;2023-05-07T07:53:18;16.50;99.90
19522;DHT22;9905;52.126;5.596;2023-05-07T07:55:45;16.50;99.90
19522;DHT22;9905;52.126;5.596;2023-05-07T07:58:13;16.60;99.90
19522;DHT22;9905;52.126;5.596;2023-05-07T08:00:40;16.60;99.90
19522;DHT22;9905;52.126;5.596;2023-05-07T08:03:09;16.60;99.90
19522;DHT22;9905;52.126;5.596;2023-05-07T08:05:36;16.60;99.90
19522;DHT22;9905;52.126;5.596;2023-05-07T08:08:04;16.60;99.90
19522;DHT22;9905;52.126;5.596;2023-05-07T08:10:31;16.70;99.90
19522;DHT22;9905;52.126;5.596;2023-05-07T08:13:00;16.70;99.90
19522;DHT22;9905;52.126;5.596;2023-05-07T08:15:28;16.80;99.90
19522;DHT22;9905;52.126;5.596;2023-05-07T08:17:55;16.90;99.90
19522;DHT22;9905;52.126;5.596;2023-05-07T08:20:22;16.90;99.90
19522;DHT22;9905;52.126;5.596;2023-05-07T08:22:49;17.00;99.90
19522;DHT22;9905;52.126;5.596;2023-05-07T08:25:16;17.00;99.90
19522;DHT22;9905;52.126;5.596;2023-05-07T08:27:42;17.10;99.90
19522;DHT22;9905;52.126;5.596;2023-05-07T08:30:11;17.10;99.90
19522;DHT22;9905;52.126;5.596;2023-05-07T08:32:39;17.10;99.90
19522;DHT22;9905;52.126;5.596;2023-05-07T08:35:07;17.10;99.90
19522;DHT22;9905;52.126;5.596;2023-05-07T08:37:33;17.00;99.90
19522;DHT22;9905;52.126;5.596;2023-05-07T08:40:00;17.00;99.90
19522;DHT22;9905;52.126;5.596;2023-05-07T08:42:28;16.90;99.90
19522;DHT22;9905;52.126;5.596;2023-05-07T08:44:57;16.80;99.90
19522;DHT22;9905;52.126;5.596;2023-05-07T08:47:33;16.80;99.90
19522;DHT22;9905;52.126;5.596;2023-05-07T08:50:03;16.80;99.90
19522;DHT22;9905;52.126;5.596;2023-05-07T08:52:29;16.80;99.90
19522;DHT22;9905;52.126;5.596;2023-05-07T08:54:56;16.80;99.90
19522;DHT22;9905;52.126;5.596;2023-05-07T08:57:23;16.80;99.90
19522;DHT22;9905;52.126;5.596;2023-05-07T08:59:50;16.80;99.90
19522;DHT22;9905;52.126;5.596;2023-05-07T09:02:17;16.70;99.90
19522;DHT22;9905;52.126;5.596;2023-05-07T09:04:44;16.70;99.90
19522;DHT22;9905;52.126;5.596;2023-05-07T09:07:12;16.70;99.90
19522;DHT22;9905;52.126;5.596;2023-05-07T09:09:39;16.70;99.90
19522;DHT22;9905;52.126;5.596;2023-05-07T09:12:06;16.70;99.90
19522;DHT22;9905;52.126;5.596;2023-05-07T09:14:32;16.70;99.90
19522;DHT22;9905;52.126;5.596;2023-05-07T09:16:59;16.80;99.90
19522;DHT22;9905;52.126;5.596;2023-05-07T09:19:27;16.90;99.90
19522;DHT22;9905;52.126;5.596;2023-05-07T09:22:00;16.90;99.90
19522;DHT22;9905;52.126;5.596;2023-05-07T09:24:28;17.00;99.90
19522;DHT22;9905;52.126;5.596;2023-05-07T09:26:59;17.00;99.90
19522;DHT22;9905;52.126;5.596;2023-05-07T09:29:26;17.10;99.90
19522;DHT22;9905;52.126;5.596;2023-05-07T09:31:54;17.20;99.90
19522;DHT22;9905;52.126;5.596;2023-05-07T09:34:21;17.20;99.90
19522;DHT22;9905;52.126;5.596;2023-05-07T09:36:47;17.20;99.90
19522;DHT22;9905;52.126;5.596;2023-05-07T09:39:14;17.20;99.90
19522;DHT22;9905;52.126;5.596;2023-05-07T09:41:46;17.20;99.90
19522;DHT22;9905;52.126;5.596;2023-05-07T09:44:14;17.20;99.90
19522;DHT22;9905;52.126;5.596;2023-05-07T09:46:42;17.30;99.90
19522;DHT22;9905;52.126;5.596;2023-05-07T09:49:13;17.40;99.90
19522;DHT22;9905;52.126;5.596;2023-05-07T09:51:47;17.50;99.90
19522;DHT22;9905;52.126;5.596;2023-05-07T09:54:15;17.60;99.90
19522;DHT22;9905;52.126;5.596;2023-05-07T09:56:43;17.60;99.90
19522;DHT22;9905;52.126;5.596;2023-05-07T09:59:13;17.70;99.90
19522;DHT22;9905;52.126;5.596;2023-05-07T10:01:42;17.70;99.90
19522;DHT22;9905;52.126;5.596;2023-05-07T10:04:09;17.80;99.90
19522;DHT22;9905;52.126;5.596;2023-05-07T10:06:37;18.00;99.90
19522;DHT22;9905;52.126;5.596;2023-05-07T10:09:05;18.10;99.90
19522;DHT22;9905;52.126;5.596;2023-05-07T10:11:32;18.10;99.90
19522;DHT22;9905;52.126;5.596;2023-05-07T10:14:00;18.20;99.90
19522;DHT22;9905;52.126;5.596;2023-05-07T10:16:29;18.30;99.90
19522;DHT22;9905;52.126;5.596;2023-05-07T10:18:57;18.30;99.90
19522;DHT22;9905;52.126;5.596;2023-05-07T10:21:27;18.40;99.90
19522;DHT22;9905;52.126;5.596;2023-05-07T10:23:58;18.50;99.90
19522;DHT22;9905;52.126;5.596;2023-05-07T10:26:25;18.50;99.90
19522;DHT22;9905;52.126;5.596;2023-05-07T10:28:57;18.60;99.90
19522;DHT22;9905;52.126;5.596;2023-05-07T10:31:49;18.60;99.90
19522;DHT22;9905;52.126;5.596;2023-05-07T10:34:21;18.60;99.90
19522;DHT22;9905;52.126;5.596;2023-05-07T10:36:49;18.50;99.90
19522;DHT22;9905;52.126;5.596;2023-05-07T10:39:17;18.60;99.90
19522;DHT22;9905;52.126;5.596;2023-05-07T10:41:45;18.70;99.90
19522;DHT22;9905;52.126;5.596;2023-05-07T10:44:25;18.80;99.90
19522;DHT22;9905;52.126;5.596;2023-05-07T10:47:05;19.00;99.90
19522;DHT22;9905;52.126;5.596;2023-05-07T10:49:34;19.10;99.90
19522;DHT22;9905;52.126;5.596;2023-05-07T10:52:15;19.30;99.90
19522;DHT22;9905;52.126;5.596;2023-05-07T10:54:42;19.40;99.90
19522;DHT22;9905;52.126;5.596;2023-05-07T10:57:34;19.40;99.90
19522;DHT22;9905;52.126;5.596;2023-05-07T11:00:40;19.60;99.90
19522;DHT22;9905;52.126;5.596;2023-05-07T11:03:09;19.80;99.90
19522;DHT22;9905;52.126;5.596;2023-05-07T11:05:36;19.90;99.90
19522;DHT22;9905;52.126;5.596;2023-05-07T11:08:04;20.00;99.90
19522;DHT22;9905;52.126;5.596;2023-05-07T11:10:51;20.10;99.90
19522;DHT22;9905;52.126;5.596;2023-05-07T11:13:40;20.30;99.90
19522;DHT22;9905;52.126;5.596;2023-05-07T11:16:17;20.40;99.90
19522;DHT22;9905;52.126;5.596;2023-05-07T11:18:50;20.50;99.90
19522;DHT22;9905;52.126;5.596;2023-05-07T11:21:33;20.60;99.90
19522;DHT22;9905;52.126;5.596;2023-05-07T11:24:01;20.60;99.90
19522;DHT22;9905;52.126;5.596;2023-05-07T11:26:30;20.60;99.90
19522;DHT22;9905;52.126;5.596;2023-05-07T11:28:57;20.60;99.90
19522;DHT22;9905;52.126;5.596;2023-05-07T11:31:27;20.60;99.90
19522;DHT22;9905;52.126;5.596;2023-05-07T11:33:57;20.70;99.90
19522;DHT22;9905;52.126;5.596;2023-05-07T11:36:24;20.70;99.90
19522;DHT22;9905;52.126;5.596;2023-05-07T11:38:51;20.70;99.90
19522;DHT22;9905;52.126;5.596;2023-05-07T11:41:18;20.80;99.90
19522;DHT22;9905;52.126;5.596;2023-05-07T11:43:55;20.80;99.90
19522;DHT22;9905;52.126;5.596;2023-05-07T11:46:22;20.80;99.90
19522;DHT22;9905;52.126;5.596;2023-05-07T11:48:49;20.80;99.90
19522;DHT22;9905;52.126;5.596;2023-05-07T11:51:20;20.80;99.90
19522;DHT22;9905;52.126;5.596;2023-05-07T11:53:47;20.80;99.90
19522;DHT22;9905;52.126;5.596;2023-05-07T11:56:17;20.90;99.90
19522;DHT22;9905;52.126;5.596;2023-05-07T11:58:45;20.80;99.90
19522;DHT22;9905;52.126;5.596;2023-05-07T12:01:13;20.90;99.90
19522;DHT22;9905;52.126;5.596;2023-05-07T12:03:41;20.90;99.90
19522;DHT22;9905;52.126;5.596;2023-05-07T12:06:09;20.80;99.90
19522;DHT22;9905;52.126;5.596;2023-05-07T12:08:38;21.00;99.90
19522;DHT22;9905;52.126;5.596;2023-05-07T12:11:07;21.00;99.90
19522;DHT22;9905;52.126;5.596;2023-05-07T12:13:35;21.00;99.90
19522;DHT22;9905;52.126;5.596;2023-05-07T12:16:02;21.00;99.90
19522;DHT22;9905;52.126;5.596;2023-05-07T12:18:30;21.00;99.90
19522;DHT22;9905;52.126;5.596;2023-05-07T12:20:57;20.90;99.90
19522;DHT22;9905;52.126;5.596;2023-05-07T12:23:25;20.90;99.90
19522;DHT22;9905;52.126;5.596;2023-05-07T12:25:54;21.10;99.90
19522;DHT22;9905;52.126;5.596;2023-05-07T12:28:20;21.20;99.90
19522;DHT22;9905;52.126;5.596;2023-05-07T12:30:48;21.10;99.90
19522;DHT22;9905;52.126;5.596;2023-05-07T12:33:17;21.20;99.90
19522;DHT22;9905;52.126;5.596;2023-05-07T12:35:47;21.30;99.90
19522;DHT22;9905;52.126;5.596;2023-05-07T12:38:15;21.30;99.90
19522;DHT22;9905;52.126;5.596;2023-05-07T12:40:44;21.30;99.90
19522;DHT22;9905;52.126;5.596;2023-05-07T12:43:17;21.30;99.90
19522;DHT22;9905;52.126;5.596;2023-05-07T12:45:45;21.30;99.90
19522;DHT22;9905;52.126;5.596;2023-05-07T12:48:13;21.40;99.90
19522;DHT22;9905;52.126;5.596;2023-05-07T12:50:39;21.40;99.90
19522;DHT22;9905;52.126;5.596;2023-05-07T12:53:07;21.60;99.90
19522;DHT22;9905;52.126;5.596;2023-05-07T12:55:41;21.70;99.90
19522;DHT22;9905;52.126;5.596;2023-05-07T12:58:08;21.90;99.90
19522;DHT22;9905;52.126;5.596;2023-05-07T13:00:43;22.10;99.90
19522;DHT22;9905;52.126;5.596;2023-05-07T13:03:10;22.10;99.90
19522;DHT22;9905;52.126;5.596;2023-05-07T13:05:37;22.20;99.90
19522;DHT22;9905;52.126;5.596;2023-05-07T13:08:04;22.30;99.90
19522;DHT22;9905;52.126;5.596;2023-05-07T13:10:31;22.40;99.90
19522;DHT22;9905;52.126;5.596;2023-05-07T13:12:59;22.30;99.90
19522;DHT22;9905;52.126;5.596;2023-05-07T13:15:26;22.30;99.90
19522;DHT22;9905;52.126;5.596;2023-05-07T13:17:54;22.30;99.90
19522;DHT22;9905;52.126;5.596;2023-05-07T13:20:21;22.30;99.90
19522;DHT22;9905;52.126;5.596;2023-05-07T13:22:48;22.30;99.90
19522;DHT22;9905;52.126;5.596;2023-05-07T13:25:15;22.50;99.90
19522;DHT22;9905;52.126;5.596;2023-05-07T13:27:42;22.60;99.90
19522;DHT22;9905;52.126;5.596;2023-05-07T13:30:09;22.50;99.90
19522;DHT22;9905;52.126;5.596;2023-05-07T13:32:35;22.50;99.90
19522;DHT22;9905;52.126;5.596;2023-05-07T13:35:04;22.50;99.90
19522;DHT22;9905;52.126;5.596;2023-05-07T13:37:31;22.50;99.90
19522;DHT22;9905;52.126;5.596;2023-05-07T13:39:58;22.50;99.90
19522;DHT22;9905;52.126;5.596;2023-05-07T13:42:25;22.40;99.90
19522;DHT22;9905;52.126;5.596;2023-05-07T13:44:51;22.40;99.90
19522;DHT22;9905;52.126;5.596;2023-05-07T13:47:18;22.40;99.90
19522;DHT22;9905;52.126;5.596;2023-05-07T13:49:45;22.40;99.90
19522;DHT22;9905;52.126;5.596;2023-05-07T13:52:16;22.40;99.90
19522;DHT22;9905;52.126;5.596;2023-05-07T13:54:42;22.40;99.90
19522;DHT22;9905;52.126;5.596;2023-05-07T13:57:09;22.40;99.90
19522;DHT22;9905;52.126;5.596;2023-05-07T13:59:36;22.30;99.90
19522;DHT22;9905;52.126;5.596;2023-05-07T14:02:03;22.30;99.90
19522;DHT22;9905;52.126;5.596;2023-05-07T14:04:30;22.30;99.90
19522;DHT22;9905;52.126;5.596;2023-05-07T14:06:57;22.20;99.90
19522;DHT22;9905;52.126;5.596;2023-05-07T14:09:25;22.10;99.90
19522;DHT22;9905;52.126;5.596;2023-05-07T14:11:52;22.10;99.90
19522;DHT22;9905;52.126;5.596;2023-05-07T14:14:19;22.10;99.90
19522;DHT22;9905;52.126;5.596;2023-05-07T14:16:45;22.20;99.90
19522;DHT22;9905;52.126;5.596;2023-05-07T14:19:12;22.10;99.90
19522;DHT22;9905;52.126;5.596;2023-05-07T14:21:39;22.20;99.90
19522;DHT22;9905;52.126;5.596;2023-05-07T14:24:07;22.20;99.90
19522;DHT22;9905;52.126;5.596;2023-05-07T14:26:35;22.20;99.90
19522;DHT22;9905;52.126;5.596;2023-05-07T14:29:02;22.10;99.90
19522;DHT22;9905;52.126;5.596;2023-05-07T14:31:29;22.20;99.90
19522;DHT22;9905;52.126;5.596;2023-05-07T14:33:56;22.10;99.90
19522;DHT22;9905;52.126;5.596;2023-05-07T14:36:23;22.10;99.90
19522;DHT22;9905;52.126;5.596;2023-05-07T14:38:51;22.10;99.90
19522;DHT22;9905;52.126;5.596;2023-05-07T14:41:19;22.00;99.90
19522;DHT22;9905;52.126;5.596;2023-05-07T14:43:47;22.00;99.90
19522;DHT22;9905;52.126;5.596;2023-05-07T14:46:16;22.00;99.90
19522;DHT22;9905;52.126;5.596;2023-05-07T14:48:43;21.90;99.90
19522;DHT22;9905;52.126;5.596;2023-05-07T14:51:10;21.80;99.90
19522;DHT22;9905;52.126;5.596;2023-05-07T14:53:37;21.70;99.90
19522;DHT22;9905;52.126;5.596;2023-05-07T14:56:04;21.60;99.90
19522;DHT22;9905;52.126;5.596;2023-05-07T14:58:31;21.60;99.90
19522;DHT22;9905;52.126;5.596;2023-05-07T15:01:00;21.50;99.90
19522;DHT22;9905;52.126;5.596;2023-05-07T15:03:27;21.40;99.90
19522;DHT22;9905;52.126;5.596;2023-05-07T15:05:55;21.30;99.90
19522;DHT22;9905;52.126;5.596;2023-05-07T15:08:21;21.30;99.90
19522;DHT22;9905;52.126;5.596;2023-05-07T15:10:48;21.30;99.90
19522;DHT22;9905;52.126;5.596;2023-05-07T15:13:15;21.20;99.90
19522;DHT22;9905;52.126;5.596;2023-05-07T15:15:42;21.10;99.90
19522;DHT22;9905;52.126;5.596;2023-05-07T15:18:11;20.90;99.90
19522;DHT22;9905;52.126;5.596;2023-05-07T15:20:38;20.80;99.90
19522;DHT22;9905;52.126;5.596;2023-05-07T15:23:06;20.60;99.90
19522;DHT22;9905;52.126;5.596;2023-05-07T15:25:35;20.50;99.90
19522;DHT22;9905;52.126;5.596;2023-05-07T15:28:02;20.60;99.90
19522;DHT22;9905;52.126;5.596;2023-05-07T15:30:29;20.50;99.90
19522;DHT22;9905;52.126;5.596;2023-05-07T15:32:56;20.50;99.90
19522;DHT22;9905;52.126;5.596;2023-05-07T15:35:25;20.60;99.90
19522;DHT22;9905;52.126;5.596;2023-05-07T15:37:52;20.40;99.90
19522;DHT22;9905;52.126;5.596;2023-05-07T15:40:19;20.30;99.90
19522;DHT22;9905;52.126;5.596;2023-05-07T15:42:45;20.30;99.90
19522;DHT22;9905;52.126;5.596;2023-05-07T15:45:12;20.30;99.90
19522;DHT22;9905;52.126;5.596;2023-05-07T15:47:39;20.10;99.90
19522;DHT22;9905;52.126;5.596;2023-05-07T15:50:06;20.10;99.90